Time;durP1;ratioP1;P1;durP2;ratioP2;P2;SDS_P1;SDS_P2;PMS_P1;PMS_P2;Temp;Humidity;BMP_temperature;BMP_pressure;BME280_temperature;BME280_humidity;BME280_pressure;Samples;Min_cycle;Max_cycle;Signal;HPM_P1;HPM_P2
2021/03/18 00:00:59;;;;;;;1.80;0.20;;;3.80;99.90;;;;;;5094172;28;20324;-61
2021/03/18 00:03:30;;;;;;;1.80;0.30;;;3.90;99.90;;;;;;5101632;28;20235;-61
2021/03/18 00:05:56;;;;;;;1.80;0.20;;;3.80;99.90;;;;;;5092253;28;20195;-61
2021/03/18 00:08:23;;;;;;;1.80;0.20;;;3.70;99.90;;;;;;5094572;28;20180;-61
2021/03/18 00:10:49;;;;;;;1.80;0.20;;;3.80;99.90;;;;;;5096288;28;20184;-61
2021/03/18 00:13:16;;;;;;;1.80;0.20;;;3.80;99.90;;;;;;5093907;28;20210;-61
2021/03/18 00:15:43;;;;;;;1.80;0.20;;;3.80;99.90;;;;;;5096182;28;20195;-61
2021/03/18 00:18:10;;;;;;;1.80;0.20;;;3.90;99.90;;;;;;5089087;28;20191;-61
2021/03/18 00:20:36;;;;;;;1.80;0.20;;;3.90;99.90;;;;;;5092118;28;20200;-60
2021/03/18 00:23:04;;;;;;;1.80;0.20;;;4.00;99.90;;;;;;5098774;28;20215;-60
2021/03/18 00:25:29;;;;;;;1.83;0.30;;;3.90;99.90;;;;;;5094376;28;20188;-60
2021/03/18 00:27:55;;;;;;;1.80;0.20;;;3.80;99.90;;;;;;5098798;28;20180;-60
2021/03/18 00:30:22;;;;;;;1.80;0.20;;;3.70;99.90;;;;;;5098897;28;20650;-60
2021/03/18 00:32:49;;;;;;;1.80;0.20;;;3.70;99.90;;;;;;5093416;28;20449;-60
2021/03/18 00:35:16;;;;;;;1.80;0.20;;;3.70;99.90;;;;;;5100420;28;20172;-60
2021/03/18 00:37:43;;;;;;;1.80;0.20;;;3.70;99.90;;;;;;5100558;28;20217;-61
2021/03/18 00:40:22;;;;;;;1.90;0.20;;;3.60;99.90;;;;;;5094784;28;20182;-60
2021/03/18 00:42:51;;;;;;;1.80;0.20;;;3.70;99.90;;;;;;5090953;28;20283;-60
2021/03/18 00:45:17;;;;;;;1.80;0.20;;;3.70;99.90;;;;;;5100367;28;20180;-60
2021/03/18 00:47:43;;;;;;;1.80;0.20;;;3.60;99.90;;;;;;5094391;28;20271;-60
2021/03/18 00:50:09;;;;;;;1.80;0.20;;;3.70;99.90;;;;;;5099781;28;20199;-60
2021/03/18 00:52:34;;;;;;;1.80;0.20;;;3.60;99.90;;;;;;5091153;28;20184;-60
2021/03/18 00:55:00;;;;;;;1.80;0.20;;;3.60;99.90;;;;;;5094803;28;20263;-60
2021/03/18 00:57:26;;;;;;;1.83;0.30;;;3.70;99.90;;;;;;5093226;28;20274;-60
2021/03/18 00:59:51;;;;;;;1.80;0.20;;;3.60;99.90;;;;;;5101443;28;20263;-60
2021/03/18 01:02:17;;;;;;;1.80;0.20;;;3.60;99.90;;;;;;5096252;28;20246;-61
2021/03/18 01:04:44;;;;;;;1.80;0.20;;;3.50;99.90;;;;;;5100904;28;20233;-60
2021/03/18 01:07:10;;;;;;;1.80;0.20;;;3.50;99.90;;;;;;5083432;28;20267;-60
2021/03/18 01:09:35;;;;;;;1.80;0.20;;;3.50;99.90;;;;;;5086190;28;20531;-60
2021/03/18 01:12:01;;;;;;;1.80;0.20;;;3.50;99.90;;;;;;5096663;28;20446;-60
2021/03/18 01:14:26;;;;;;;1.80;0.20;;;3.50;99.90;;;;;;5095117;28;20212;-60
2021/03/18 01:16:52;;;;;;;1.80;0.20;;;3.50;99.90;;;;;;5076043;28;20551;-60
2021/03/18 01:19:22;;;;;;;2.10;0.75;;;3.50;99.90;;;;;;5098947;28;20184;-60
2021/03/18 01:21:54;;;;;;;1.80;0.20;;;3.50;99.90;;;;;;5096223;28;20204;-60
2021/03/18 01:24:19;;;;;;;1.80;0.30;;;3.50;99.90;;;;;;5097276;28;20195;-60
2021/03/18 01:26:46;;;;;;;1.80;0.20;;;3.50;99.90;;;;;;5093647;28;20539;-61
2021/03/18 01:29:13;;;;;;;1.77;0.20;;;3.40;99.90;;;;;;5087607;28;20175;-60
2021/03/18 01:31:39;;;;;;;1.80;0.20;;;3.40;99.90;;;;;;5089767;28;20267;-60
2021/03/18 01:34:06;;;;;;;1.80;0.20;;;3.40;99.90;;;;;;5082988;28;20221;-60
2021/03/18 01:36:34;;;;;;;1.80;0.20;;;3.40;99.90;;;;;;5072820;28;20195;-60
2021/03/18 01:39:00;;;;;;;1.80;0.20;;;3.40;99.90;;;;;;5099073;28;20213;-60
2021/03/18 01:41:27;;;;;;;1.80;0.20;;;3.40;99.90;;;;;;5091842;28;20253;-60
2021/03/18 01:43:54;;;;;;;1.80;0.20;;;3.50;99.90;;;;;;5090911;28;20208;-60
2021/03/18 01:46:20;;;;;;;1.80;0.20;;;3.40;99.90;;;;;;5101999;28;20638;-60
2021/03/18 01:48:46;;;;;;;1.80;0.20;;;3.40;99.90;;;;;;5083482;28;20195;-60
2021/03/18 01:51:15;;;;;;;1.80;0.20;;;3.30;99.90;;;;;;5096952;28;20727;-60
2021/03/18 01:53:41;;;;;;;1.80;0.20;;;3.30;99.90;;;;;;5103125;28;20602;-60
2021/03/18 01:56:08;;;;;;;1.80;0.20;;;3.30;99.90;;;;;;5079185;28;20261;-60
2021/03/18 01:58:35;;;;;;;1.80;0.20;;;3.30;99.90;;;;;;5092120;28;20195;-60
2021/03/18 02:01:05;;;;;;;1.80;0.20;;;3.20;99.90;;;;;;5081097;28;20825;-60
2021/03/18 02:03:30;;;;;;;1.80;0.20;;;3.20;99.90;;;;;;5098513;28;20206;-61
2021/03/18 02:05:56;;;;;;;1.77;0.20;;;3.10;99.90;;;;;;5091666;28;20233;-60
2021/03/18 02:08:22;;;;;;;1.80;0.20;;;2.90;99.90;;;;;;5101604;28;20237;-60
2021/03/18 02:10:48;;;;;;;1.80;0.30;;;2.90;99.90;;;;;;5091003;28;20189;-60
2021/03/18 02:13:15;;;;;;;1.80;0.20;;;2.90;99.90;;;;;;5099005;28;20439;-61
2021/03/18 02:15:47;;;;;;;1.80;0.20;;;2.90;99.90;;;;;;5091649;28;20183;-61
2021/03/18 02:18:29;;;;;;;1.80;0.20;;;2.90;99.90;;;;;;5078012;28;20185;-61
2021/03/18 02:21:07;;;;;;;1.80;0.20;;;3.00;99.90;;;;;;5110478;28;20216;-62
2021/03/18 02:23:54;;;;;;;1.80;0.20;;;3.00;99.90;;;;;;5112187;28;20199;-61
2021/03/18 02:26:29;;;;;;;1.80;0.20;;;3.00;99.90;;;;;;5101348;28;20183;-61
2021/03/18 02:29:32;;;;;;;1.80;0.20;;;3.00;99.90;;;;;;5087415;28;20183;-61
2021/03/18 02:32:16;;;;;;;1.80;0.20;;;2.90;99.90;;;;;;5093253;28;20179;-61
2021/03/18 02:35:17;;;;;;;1.80;0.20;;;2.70;99.90;;;;;;5098537;28;20203;-61
2021/03/18 02:37:50;;;;;;;1.80;0.20;;;2.70;99.90;;;;;;5092363;28;20180;-61
2021/03/18 02:40:19;;;;;;;1.80;0.20;;;2.80;99.90;;;;;;5091407;28;20224;-61
2021/03/18 02:42:48;;;;;;;1.80;0.20;;;2.80;99.90;;;;;;5098152;28;20705;-61
2021/03/18 02:45:15;;;;;;;1.80;0.20;;;2.70;99.90;;;;;;5094300;28;20597;-61
2021/03/18 02:47:42;;;;;;;1.80;0.20;;;2.70;99.90;;;;;;5095434;28;20226;-61
2021/03/18 02:50:09;;;;;;;1.80;0.20;;;2.70;99.90;;;;;;5090457;28;20541;-61
2021/03/18 02:52:38;;;;;;;1.80;0.20;;;2.70;99.90;;;;;;5096369;28;20287;-61
2021/03/18 02:55:06;;;;;;;1.80;0.20;;;2.70;99.90;;;;;;5101934;28;20176;-61
2021/03/18 02:57:34;;;;;;;1.80;0.20;;;2.70;99.90;;;;;;5111263;28;20244;-61
2021/03/18 03:00:01;;;;;;;1.80;0.20;;;2.70;99.90;;;;;;5112228;28;20197;-61
2021/03/18 03:02:28;;;;;;;2.15;1.20;;;2.70;99.90;;;;;;5113660;28;20258;-62
2021/03/18 03:04:57;;;;;;;1.80;0.20;;;2.80;99.90;;;;;;5105318;28;20172;-62
2021/03/18 03:07:25;;;;;;;1.80;0.20;;;2.80;99.90;;;;;;5098495;28;20184;-60
2021/03/18 03:09:52;;;;;;;1.80;0.20;;;2.80;99.90;;;;;;5089216;28;20180;-60
2021/03/18 03:12:22;;;;;;;1.80;0.20;;;2.60;99.90;;;;;;5101212;28;20180;-60
2021/03/18 03:14:50;;;;;;;1.80;0.20;;;2.40;99.90;;;;;;5092799;28;20190;-60
2021/03/18 03:17:18;;;;;;;1.80;0.20;;;2.40;99.90;;;;;;5089121;28;20179;-60
2021/03/18 03:19:45;;;;;;;1.80;0.20;;;2.40;99.90;;;;;;5097355;28;20192;-61
2021/03/18 03:22:11;;;;;;;1.80;0.20;;;2.30;99.90;;;;;;5093567;28;20211;-61
2021/03/18 03:24:38;;;;;;;1.80;0.20;;;2.40;99.90;;;;;;5076473;28;20203;-61
2021/03/18 03:27:05;;;;;;;1.80;0.20;;;2.50;99.90;;;;;;5090429;28;20184;-61
2021/03/18 03:29:33;;;;;;;1.80;0.30;;;2.50;99.90;;;;;;5088865;28;20191;-61
2021/03/18 03:31:59;;;;;;;1.80;0.20;;;2.50;99.90;;;;;;5093866;28;20619;-61
2021/03/18 03:34:24;;;;;;;1.80;0.20;;;2.50;99.90;;;;;;5104257;28;20207;-60
2021/03/18 03:36:50;;;;;;;1.80;0.20;;;2.50;99.90;;;;;;5097708;28;20833;-61
2021/03/18 03:39:16;;;;;;;1.80;0.20;;;2.40;99.90;;;;;;5105464;28;20251;-61
2021/03/18 03:41:43;;;;;;;2.50;2.08;;;2.40;99.90;;;;;;5101489;28;20465;-61
2021/03/18 03:44:09;;;;;;;1.80;0.20;;;2.50;99.90;;;;;;5095686;28;20534;-60
2021/03/18 03:46:35;;;;;;;1.80;0.20;;;2.50;99.90;;;;;;5103677;28;20187;-60
2021/03/18 03:49:01;;;;;;;1.80;0.20;;;2.50;99.90;;;;;;5086356;28;20829;-60
2021/03/18 03:51:34;;;;;;;2.22;1.48;;;2.50;99.90;;;;;;5095185;28;20218;-61
2021/03/18 03:54:03;;;;;;;1.80;0.20;;;2.40;99.90;;;;;;5081299;28;20234;-61
2021/03/18 03:56:58;;;;;;;1.80;0.20;;;2.20;99.90;;;;;;5098550;28;20194;-61
2021/03/18 03:59:25;;;;;;;1.80;0.20;;;2.20;99.90;;;;;;5097906;28;20217;-61
2021/03/18 04:01:54;;;;;;;1.80;0.20;;;2.10;99.90;;;;;;5102908;28;20211;-61
2021/03/18 04:04:41;;;;;;;1.80;0.20;;;2.20;99.90;;;;;;5091305;28;20208;-61
2021/03/18 04:07:34;;;;;;;1.80;0.20;;;2.20;99.90;;;;;;5092828;28;20176;-61
2021/03/18 04:10:02;;;;;;;1.80;0.20;;;2.10;99.90;;;;;;5087695;28;20269;-60
2021/03/18 04:12:38;;;;;;;1.80;0.20;;;2.00;99.90;;;;;;5098808;28;20668;-60
2021/03/18 04:15:12;;;;;;;1.80;0.20;;;2.10;99.90;;;;;;5093174;28;20180;-60
2021/03/18 04:17:42;;;;;;;1.80;0.20;;;2.10;99.90;;;;;;5090800;28;20325;-60
2021/03/18 04:20:11;;;;;;;1.80;0.20;;;2.20;99.90;;;;;;5105595;28;20187;-60
2021/03/18 04:22:40;;;;;;;1.80;0.20;;;2.10;99.90;;;;;;5090938;28;20203;-60
2021/03/18 04:25:08;;;;;;;1.80;0.20;;;2.10;99.90;;;;;;5090285;28;20172;-60
2021/03/18 04:27:35;;;;;;;1.80;0.20;;;2.20;99.90;;;;;;5092364;28;20176;-59
2021/03/18 04:30:04;;;;;;;1.80;0.20;;;2.20;99.90;;;;;;5089472;28;20238;-60
2021/03/18 04:32:30;;;;;;;1.80;0.30;;;2.30;99.90;;;;;;5093344;28;20192;-60
2021/03/18 04:34:56;;;;;;;1.80;0.20;;;2.20;99.90;;;;;;5102753;28;20248;-61
2021/03/18 04:37:23;;;;;;;1.80;0.20;;;2.20;99.90;;;;;;5090886;28;20376;-61
2021/03/18 04:39:49;;;;;;;2.20;0.90;;;2.20;99.90;;;;;;5073761;28;20267;-61
2021/03/18 04:42:16;;;;;;;1.80;0.20;;;2.20;99.90;;;;;;5089884;28;20222;-61
2021/03/18 04:44:44;;;;;;;1.80;0.20;;;2.00;99.90;;;;;;5091931;28;20275;-61
2021/03/18 04:47:11;;;;;;;1.80;0.20;;;2.00;99.90;;;;;;5101326;28;20529;-61
2021/03/18 04:49:40;;;;;;;1.80;0.20;;;2.00;99.90;;;;;;5115327;22;20223;-62
2021/03/18 04:52:05;;;;;;;1.80;0.20;;;2.10;99.90;;;;;;5108006;27;20235;-62
2021/03/18 04:54:31;;;;;;;1.80;0.20;;;2.20;99.90;;;;;;5119332;27;20657;-62
2021/03/18 04:56:57;;;;;;;1.80;0.20;;;2.20;99.90;;;;;;5110572;27;20219;-62
2021/03/18 04:59:24;;;;;;;1.80;0.20;;;2.20;99.90;;;;;;5111996;27;20195;-61
2021/03/18 05:01:52;;;;;;;2.20;1.58;;;2.10;99.90;;;;;;5113415;27;20240;-62
2021/03/18 05:04:18;;;;;;;1.80;0.20;;;2.20;99.90;;;;;;5120926;27;20175;-62
2021/03/18 05:06:50;;;;;;;1.80;0.20;;;2.20;99.90;;;;;;5113694;27;20183;-62
2021/03/18 05:09:16;;;;;;;1.80;0.20;;;2.30;99.90;;;;;;5112771;27;20325;-62
2021/03/18 05:11:43;;;;;;;1.80;0.40;;;2.30;99.90;;;;;;5105525;28;20191;-62
2021/03/18 05:14:09;;;;;;;1.80;0.30;;;2.30;99.90;;;;;;5107925;27;20480;-62
2021/03/18 05:16:36;;;;;;;1.80;0.20;;;2.20;99.90;;;;;;5110605;27;20184;-62
2021/03/18 05:19:04;;;;;;;1.80;0.20;;;2.20;99.90;;;;;;5115605;27;20214;-62
2021/03/18 05:21:30;;;;;;;1.80;0.20;;;2.20;99.90;;;;;;5109322;27;20195;-62
2021/03/18 05:23:58;;;;;;;1.90;0.45;;;2.30;99.90;;;;;;5114988;27;20341;-62
2021/03/18 05:26:24;;;;;;;1.80;0.20;;;2.30;99.90;;;;;;5112941;27;20178;-62
2021/03/18 05:28:49;;;;;;;1.80;0.20;;;2.30;99.90;;;;;;5115055;27;20172;-62
2021/03/18 05:31:15;;;;;;;2.67;1.90;;;2.40;99.90;;;;;;5112765;27;20172;-62
2021/03/18 05:33:40;;;;;;;2.03;0.63;;;2.40;99.90;;;;;;5108926;27;20194;-62
2021/03/18 05:36:06;;;;;;;1.80;0.20;;;2.30;99.90;;;;;;5111439;28;20171;-61
2021/03/18 05:38:32;;;;;;;1.80;0.20;;;2.30;99.90;;;;;;5120831;27;20190;-62
2021/03/18 05:40:58;;;;;;;1.80;0.20;;;2.30;99.90;;;;;;5109413;27;20493;-63
2021/03/18 05:43:25;;;;;;;1.80;0.20;;;2.30;99.90;;;;;;5116989;27;20803;-61
2021/03/18 05:45:51;;;;;;;1.80;0.20;;;2.30;99.90;;;;;;5110742;27;20320;-62
2021/03/18 05:48:19;;;;;;;1.80;0.20;;;2.30;99.90;;;;;;5104654;27;20279;-62
2021/03/18 05:50:46;;;;;;;1.80;0.30;;;2.20;99.90;;;;;;5113723;27;20203;-62
2021/03/18 05:53:12;;;;;;;1.80;0.20;;;2.20;99.90;;;;;;5103825;27;20187;-62
2021/03/18 05:55:38;;;;;;;1.80;0.20;;;2.20;99.90;;;;;;5094597;28;20190;-62
2021/03/18 05:58:04;;;;;;;1.80;0.20;;;2.30;99.90;;;;;;5118990;27;20187;-62
2021/03/18 06:00:32;;;;;;;1.80;0.20;;;2.30;99.90;;;;;;5106907;27;20569;-62
2021/03/18 06:02:59;;;;;;;1.77;0.20;;;2.30;99.90;;;;;;5114843;27;20445;-62
2021/03/18 06:05:24;;;;;;;1.80;0.20;;;2.30;99.90;;;;;;5110757;27;20170;-62
2021/03/18 06:07:50;;;;;;;1.80;0.20;;;2.30;99.90;;;;;;5116397;27;20178;-62
2021/03/18 06:10:21;;;;;;;1.80;0.20;;;2.30;99.90;;;;;;5118619;27;20264;-61
2021/03/18 06:12:51;;;;;;;1.80;0.20;;;2.30;99.90;;;;;;5119804;27;20182;-62
2021/03/18 06:15:19;;;;;;;1.80;0.20;;;2.20;99.90;;;;;;5108785;27;20182;-62
2021/03/18 06:17:45;;;;;;;1.80;0.20;;;2.10;99.90;;;;;;5110733;27;20191;-62
2021/03/18 06:20:21;;;;;;;1.80;0.20;;;2.10;99.90;;;;;;5111165;27;20649;-61
2021/03/18 06:22:48;;;;;;;1.80;0.20;;;2.20;99.90;;;;;;5108120;28;20466;-61
2021/03/18 06:25:40;;;;;;;1.80;0.20;;;2.20;99.90;;;;;;5107616;27;20598;-61
2021/03/18 06:28:21;;;;;;;1.80;0.20;;;2.30;99.90;;;;;;5116676;27;20195;-62
2021/03/18 06:30:57;;;;;;;1.80;0.20;;;2.30;99.90;;;;;;5108939;27;20234;-62
2021/03/18 06:33:26;;;;;;;1.77;0.20;;;2.30;99.90;;;;;;5104756;27;20210;-62
2021/03/18 06:35:53;;;;;;;1.80;0.20;;;2.30;99.90;;;;;;5119550;27;20673;-62
2021/03/18 06:38:26;;;;;;;1.80;0.20;;;2.40;99.90;;;;;;5109330;27;20199;-62
2021/03/18 06:40:51;;;;;;;1.80;0.20;;;2.40;99.90;;;;;;5107938;27;20202;-62
2021/03/18 06:43:17;;;;;;;1.80;0.20;;;2.30;99.90;;;;;;5125997;27;20186;-61
2021/03/18 06:45:44;;;;;;;1.80;0.30;;;2.30;99.90;;;;;;5109586;27;20258;-61
2021/03/18 06:48:15;;;;;;;1.80;0.30;;;2.30;99.90;;;;;;5114149;27;20179;-61
2021/03/18 06:50:47;;;;;;;1.80;0.30;;;2.20;99.90;;;;;;5111152;27;20211;-61
2021/03/18 06:53:28;;;;;;;2.00;0.60;;;2.10;99.90;;;;;;5114583;27;20224;-59
2021/03/18 06:55:54;;;;;;;2.00;0.80;;;2.20;99.90;;;;;;5112336;27;20187;-61
2021/03/18 06:58:25;;;;;;;2.00;0.60;;;2.10;99.90;;;;;;5106554;28;20256;-62
2021/03/18 07:00:54;;;;;;;1.80;0.20;;;2.10;99.90;;;;;;5111388;28;20461;-61
2021/03/18 07:03:32;;;;;;;1.80;0.20;;;2.20;99.90;;;;;;5109892;28;20176;-61
2021/03/18 07:06:06;;;;;;;1.80;0.30;;;2.20;99.90;;;;;;5107466;28;20642;-61
2021/03/18 07:08:40;;;;;;;1.90;0.73;;;2.30;99.90;;;;;;5106823;27;20184;-61
2021/03/18 07:11:22;;;;;;;1.80;0.30;;;2.30;99.90;;;;;;5112602;27;20186;-61
2021/03/18 07:13:49;;;;;;;1.80;0.20;;;2.30;99.90;;;;;;5114651;27;20728;-61
2021/03/18 07:16:15;;;;;;;1.80;0.20;;;2.40;99.90;;;;;;5111229;28;20183;-61
2021/03/18 07:18:42;;;;;;;1.80;0.20;;;2.50;99.90;;;;;;5110175;27;20191;-62
2021/03/18 07:21:12;;;;;;;1.80;0.20;;;2.60;99.90;;;;;;5122338;27;20230;-62
2021/03/18 07:23:43;;;;;;;1.80;0.20;;;2.70;99.90;;;;;;5113543;27;20270;-62
2021/03/18 07:26:15;;;;;;;1.80;0.20;;;2.80;99.90;;;;;;5115478;27;20207;-62
2021/03/18 07:28:42;;;;;;;1.80;0.20;;;2.80;99.90;;;;;;5115211;27;20228;-62
2021/03/18 07:31:08;;;;;;;1.80;0.20;;;2.90;99.90;;;;;;5115810;27;20175;-62
2021/03/18 07:33:34;;;;;;;1.80;0.20;;;2.90;99.90;;;;;;5108641;27;20199;-62
2021/03/18 07:36:01;;;;;;;1.80;0.20;;;2.90;99.90;;;;;;5124886;27;20442;-61
2021/03/18 07:38:28;;;;;;;1.80;0.20;;;3.00;99.90;;;;;;5105995;27;20510;-62
2021/03/18 07:40:55;;;;;;;1.80;0.20;;;3.00;99.90;;;;;;5111439;27;20204;-61
2021/03/18 07:43:21;;;;;;;1.80;0.20;;;3.00;99.90;;;;;;5112109;27;20182;-61
2021/03/18 07:45:47;;;;;;;1.90;0.43;;;3.10;99.90;;;;;;5110527;28;20722;-61
2021/03/18 07:48:13;;;;;;;1.80;0.20;;;3.10;99.90;;;;;;5114348;27;20186;-62
2021/03/18 07:50:40;;;;;;;1.90;0.75;;;3.20;99.90;;;;;;5117496;27;20676;-61
2021/03/18 07:53:09;;;;;;;1.80;0.20;;;3.30;99.90;;;;;;5107556;27;20209;-61
2021/03/18 07:55:37;;;;;;;1.80;0.20;;;3.40;99.90;;;;;;5113619;27;20185;-61
2021/03/18 07:58:03;;;;;;;1.80;0.20;;;3.50;99.90;;;;;;5123866;27;20174;-62
2021/03/18 08:00:32;;;;;;;1.80;0.20;;;3.50;99.90;;;;;;5111897;27;20199;-62
2021/03/18 08:03:23;;;;;;;1.80;0.20;;;3.60;99.90;;;;;;5122074;27;20411;-61
2021/03/18 08:05:50;;;;;;;1.80;0.20;;;3.60;99.90;;;;;;5124245;27;20197;-62
2021/03/18 08:08:31;;;;;;;1.80;0.20;;;3.70;99.90;;;;;;5110132;27;20204;-61
2021/03/18 08:11:12;;;;;;;1.80;0.20;;;3.70;99.90;;;;;;5118432;27;20207;-62
2021/03/18 08:13:40;;;;;;;2.35;1.05;;;3.80;99.90;;;;;;5115013;27;20258;-62
2021/03/18 08:16:26;;;;;;;1.80;0.20;;;3.90;99.90;;;;;;5115632;27;20183;-62
2021/03/18 08:18:52;;;;;;;1.80;0.20;;;3.90;99.90;;;;;;5108796;27;20201;-62
2021/03/18 08:21:18;;;;;;;1.80;0.20;;;3.90;99.90;;;;;;5124379;27;20214;-62
2021/03/18 08:23:46;;;;;;;1.80;0.20;;;3.90;99.90;;;;;;5112904;27;20188;-63
2021/03/18 08:26:19;;;;;;;2.17;0.55;;;3.90;99.90;;;;;;5116674;27;20925;-62
2021/03/18 08:28:57;;;;;;;1.80;0.20;;;3.90;99.90;;;;;;5115852;27;20672;-62
2021/03/18 08:31:40;;;;;;;1.80;0.20;;;3.90;99.90;;;;;;5116116;27;20642;-62
2021/03/18 08:34:06;;;;;;;11.18;2.03;;;4.00;99.90;;;;;;5096875;28;20273;-62
2021/03/18 08:36:58;;;;;;;4.90;1.23;;;4.00;99.90;;;;;;5123791;27;20323;-62
2021/03/18 08:39:46;;;;;;;1.80;0.20;;;4.00;99.90;;;;;;5116896;27;20290;-62
2021/03/18 08:42:30;;;;;;;1.80;0.20;;;4.00;99.90;;;;;;5123352;27;20199;-63
2021/03/18 08:44:57;;;;;;;1.80;0.20;;;4.00;99.90;;;;;;5132227;27;20186;-64
2021/03/18 08:47:36;;;;;;;1.80;0.20;;;4.00;99.90;;;;;;5129856;27;20188;-62
2021/03/18 08:50:05;;;;;;;1.80;0.20;;;4.00;99.90;;;;;;5125376;28;20236;-63
2021/03/18 08:52:57;;;;;;;1.80;0.20;;;4.10;99.90;;;;;;5125990;27;20278;-62
2021/03/18 08:55:45;;;;;;;1.80;0.20;;;4.10;99.90;;;;;;5117288;27;20237;-62
2021/03/18 08:58:14;;;;;;;68.60;45.80;;;4.20;99.90;;;;;;5114236;27;20179;-62
2021/03/18 09:00:40;;;;;;;1.80;0.20;;;4.30;99.90;;;;;;5111744;27;20202;-62
2021/03/18 09:03:06;;;;;;;1.80;0.20;;;4.20;99.90;;;;;;5097046;27;20175;-61
2021/03/18 09:05:32;;;;;;;1.88;0.30;;;4.30;99.90;;;;;;5121030;27;20184;-61
2021/03/18 09:08:04;;;;;;;2.28;0.60;;;4.20;99.90;;;;;;5121672;27;20690;-62
2021/03/18 09:10:35;;;;;;;1.80;0.20;;;4.20;99.90;;;;;;5127892;27;20212;-62
2021/03/18 09:13:13;;;;;;;1.80;0.30;;;4.30;99.90;;;;;;5123863;27;20217;-63
2021/03/18 09:15:42;;;;;;;1.80;0.20;;;4.30;99.90;;;;;;5120818;27;20215;-62
2021/03/18 09:18:21;;;;;;;2.38;2.05;;;4.40;99.90;;;;;;5124325;27;20183;-62
2021/03/18 09:21:09;;;;;;;1.80;0.30;;;4.50;99.90;;;;;;5112755;27;20256;-62
2021/03/18 09:23:45;;;;;;;1.80;0.20;;;4.50;99.90;;;;;;5110535;27;20712;-62
2021/03/18 09:26:15;;;;;;;1.80;0.20;;;4.60;99.90;;;;;;5121088;27;20546;-62
2021/03/18 09:28:50;;;;;;;3.42;0.60;;;4.80;99.90;;;;;;5116240;27;20266;-62
2021/03/18 09:31:22;;;;;;;1.80;0.20;;;4.90;99.90;;;;;;5089739;28;20205;-62
2021/03/18 09:33:48;;;;;;;1.80;0.20;;;5.00;99.90;;;;;;5114382;27;20176;-62
2021/03/18 09:36:13;;;;;;;2.10;0.90;;;5.10;99.90;;;;;;5108500;27;20166;-62
2021/03/18 09:38:39;;;;;;;1.80;0.20;;;5.20;99.90;;;;;;5108882;27;20195;-64
2021/03/18 09:41:04;;;;;;;1.80;0.20;;;5.20;99.90;;;;;;5114013;28;20218;-62
2021/03/18 09:43:30;;;;;;;1.80;0.20;;;5.30;99.90;;;;;;5119186;27;20179;-62
2021/03/18 09:46:02;;;;;;;1.80;0.20;;;5.30;99.90;;;;;;5104973;27;20643;-62
2021/03/18 09:48:33;;;;;;;1.80;0.20;;;5.30;98.90;;;;;;5109845;27;20502;-62
2021/03/18 09:51:15;;;;;;;3.17;1.05;;;5.30;98.70;;;;;;5120347;27;20219;-62
2021/03/18 09:53:43;;;;;;;2.22;0.73;;;5.30;98.10;;;;;;5112874;27;20213;-61
2021/03/18 09:56:12;;;;;;;4.30;0.70;;;5.30;98.00;;;;;;5113764;27;20210;-61
2021/03/18 09:58:39;;;;;;;2.30;0.75;;;5.50;97.20;;;;;;5121435;27;20654;-62
2021/03/18 10:01:23;;;;;;;1.85;0.30;;;5.50;97.00;;;;;;5109418;27;20698;-62
2021/03/18 10:03:58;;;;;;;1.75;0.20;;;5.50;97.60;;;;;;5122328;27;20179;-62
2021/03/18 10:06:30;;;;;;;3.75;1.77;;;5.60;97.30;;;;;;5121591;27;20177;-62
2021/03/18 10:09:24;;;;;;;1.80;0.20;;;5.70;97.40;;;;;;5103498;27;20216;-62
2021/03/18 10:11:57;;;;;;;2.20;0.88;;;5.80;98.30;;;;;;5094574;27;20646;-62
2021/03/18 10:14:25;;;;;;;2.53;0.75;;;5.90;97.60;;;;;;5122199;27;20188;-61
2021/03/18 10:16:53;;;;;;;3.15;1.08;;;6.00;97.20;;;;;;5112490;27;20515;-61
2021/03/18 10:19:22;;;;;;;4.40;1.27;;;6.20;96.40;;;;;;5106428;27;20306;-62
2021/03/18 10:21:49;;;;;;;2.33;0.70;;;6.20;95.70;;;;;;5110772;27;20252;-61
2021/03/18 10:24:15;;;;;;;2.20;0.85;;;6.10;95.20;;;;;;5114188;27;20262;-60
2021/03/18 10:26:41;;;;;;;1.80;0.20;;;6.00;95.10;;;;;;5116587;27;20644;-62
2021/03/18 10:29:08;;;;;;;1.80;0.20;;;6.00;95.00;;;;;;5100188;27;20298;-62
2021/03/18 10:31:36;;;;;;;1.80;0.20;;;6.10;94.90;;;;;;5118031;27;20236;-62
2021/03/18 10:34:03;;;;;;;1.80;0.20;;;6.20;95.30;;;;;;5113923;27;20321;-62
2021/03/18 10:36:36;;;;;;;1.80;0.30;;;6.30;95.50;;;;;;5122097;27;20658;-59
2021/03/18 10:39:07;;;;;;;8.45;3.17;;;6.40;96.30;;;;;;5108590;27;20210;-60
2021/03/18 10:41:34;;;;;;;3.40;1.47;;;6.30;96.00;;;;;;5107157;27;20255;-62
2021/03/18 10:43:59;;;;;;;1.80;0.20;;;6.20;96.40;;;;;;5111002;28;20939;-62
2021/03/18 10:46:33;;;;;;;3.03;1.63;;;6.20;97.50;;;;;;5106410;27;20258;-61
2021/03/18 10:48:58;;;;;;;3.50;1.58;;;6.30;97.40;;;;;;5117639;27;20188;-61
2021/03/18 10:51:24;;;;;;;2.90;1.30;;;6.10;96.80;;;;;;5114464;27;20178;-62
2021/03/18 10:53:51;;;;;;;2.10;0.70;;;6.10;97.40;;;;;;5107816;28;20270;-61
2021/03/18 10:56:25;;;;;;;1.77;0.20;;;6.10;98.30;;;;;;5113383;27;20202;-61
2021/03/18 10:58:51;;;;;;;2.40;1.05;;;6.20;98.30;;;;;;5110225;28;20179;-62
2021/03/18 11:01:25;;;;;;;2.40;1.25;;;6.20;98.70;;;;;;5107827;28;20292;-62
2021/03/18 11:03:51;;;;;;;2.42;0.90;;;6.10;98.70;;;;;;5111507;28;20180;-62
2021/03/18 11:06:21;;;;;;;1.77;0.20;;;6.10;98.60;;;;;;5112827;27;20257;-61
2021/03/18 11:08:56;;;;;;;4.72;1.70;;;6.00;98.40;;;;;;5103353;28;20466;-62
2021/03/18 11:11:23;;;;;;;2.42;0.80;;;6.00;97.80;;;;;;5111331;28;20183;-62
2021/03/18 11:13:48;;;;;;;2.03;0.47;;;6.00;97.50;;;;;;5112176;28;20839;-62
2021/03/18 11:16:22;;;;;;;3.40;1.00;;;6.10;97.40;;;;;;5108035;28;20234;-65
2021/03/18 11:18:50;;;;;;;1.80;0.30;;;6.20;97.20;;;;;;5120537;28;20658;-60
2021/03/18 11:21:32;;;;;;;3.90;1.05;;;6.20;96.10;;;;;;5115765;28;20206;-61
2021/03/18 11:24:16;;;;;;;3.95;2.17;;;6.20;96.40;;;;;;5107043;28;20190;-61
2021/03/18 11:26:54;;;;;;;2.60;0.95;;;6.20;96.30;;;;;;5106096;28;20207;-61
2021/03/18 11:29:24;;;;;;;1.80;0.30;;;6.30;96.10;;;;;;5107867;28;20194;-61
2021/03/18 11:31:53;;;;;;;1.85;0.40;;;6.30;95.70;;;;;;5111806;28;20523;-61
2021/03/18 11:34:31;;;;;;;3.60;1.73;;;6.40;95.70;;;;;;5116730;28;20175;-61
2021/03/18 11:36:59;;;;;;;2.00;0.55;;;6.50;96.00;;;;;;5112008;28;20195;-61
2021/03/18 11:39:25;;;;;;;2.65;0.77;;;6.50;96.00;;;;;;5111090;28;20206;-61
2021/03/18 11:41:53;;;;;;;2.30;0.73;;;6.60;95.70;;;;;;5114784;28;20203;-62
2021/03/18 11:44:19;;;;;;;1.75;0.20;;;6.70;95.30;;;;;;5108964;28;20597;-62
2021/03/18 11:46:44;;;;;;;2.00;0.65;;;6.70;94.70;;;;;;5108816;28;20210;-61
2021/03/18 11:49:10;;;;;;;2.10;0.80;;;6.70;95.00;;;;;;5119169;28;20708;-61
2021/03/18 11:51:36;;;;;;;1.80;0.30;;;6.80;94.80;;;;;;5112833;28;20197;-61
2021/03/18 11:54:03;;;;;;;2.30;0.87;;;7.00;95.10;;;;;;5110174;28;20460;-61
2021/03/18 11:56:28;;;;;;;1.80;0.20;;;7.20;94.20;;;;;;5121105;27;20437;-61
2021/03/18 11:58:54;;;;;;;3.10;1.70;;;7.40;93.90;;;;;;5117567;27;20452;-62
2021/03/18 12:01:20;;;;;;;4.30;1.80;;;7.50;93.10;;;;;;5110293;27;20721;-60
2021/03/18 12:03:45;;;;;;;4.17;1.93;;;7.30;92.60;;;;;;5122482;27;20171;-59
2021/03/18 12:06:11;;;;;;;2.93;1.07;;;7.20;92.60;;;;;;5121112;27;20633;-60
2021/03/18 12:08:37;;;;;;;1.90;0.40;;;7.30;92.60;;;;;;5115801;27;20258;-61
2021/03/18 12:11:04;;;;;;;1.80;0.20;;;7.30;92.70;;;;;;5116474;27;20488;-61
2021/03/18 12:13:31;;;;;;;3.10;1.30;;;7.20;93.00;;;;;;5112162;28;20251;-61
2021/03/18 12:15:56;;;;;;;2.47;0.50;;;7.00;93.80;;;;;;5112261;27;20444;-62
2021/03/18 12:18:22;;;;;;;5.87;1.33;;;7.10;94.00;;;;;;5121282;27;20444;-61
2021/03/18 12:20:48;;;;;;;3.27;1.80;;;7.10;94.80;;;;;;5110809;27;20214;-63
2021/03/18 12:23:13;;;;;;;2.40;0.53;;;7.10;94.70;;;;;;5088908;27;20179;-61
2021/03/18 12:25:39;;;;;;;4.80;1.23;;;7.10;95.50;;;;;;5113284;27;20205;-60
2021/03/18 12:28:04;;;;;;;3.47;2.17;;;7.20;95.40;;;;;;5109984;27;20183;-61
2021/03/18 12:30:30;;;;;;;1.97;0.60;;;7.10;95.70;;;;;;5121597;27;20222;-61
2021/03/18 12:32:56;;;;;;;1.77;0.30;;;7.10;95.30;;;;;;5118834;27;20190;-61
2021/03/18 12:35:22;;;;;;;1.80;0.30;;;7.00;96.00;;;;;;5106831;27;20219;-61
2021/03/18 12:37:50;;;;;;;3.60;2.40;;;7.10;96.40;;;;;;5122464;27;20195;-61
2021/03/18 12:40:17;;;;;;;2.00;0.40;;;7.10;96.30;;;;;;5113877;27;20456;-61
2021/03/18 12:42:43;;;;;;;6.30;2.10;;;7.00;97.00;;;;;;5108842;27;20500;-61
2021/03/18 12:45:11;;;;;;;1.70;0.20;;;7.10;96.40;;;;;;5110152;28;21028;-60
2021/03/18 12:47:38;;;;;;;2.03;1.07;;;7.20;96.70;;;;;;5116420;27;20432;-61
2021/03/18 12:50:10;;;;;;;2.50;1.17;;;7.30;95.80;;;;;;5128770;27;20475;-61
2021/03/18 12:52:36;;;;;;;1.70;0.20;;;7.30;95.50;;;;;;5117702;27;20550;-61
2021/03/18 12:55:03;;;;;;;6.70;1.37;;;7.40;95.80;;;;;;5111998;27;20878;-61
2021/03/18 12:57:28;;;;;;;2.93;0.80;;;7.40;95.90;;;;;;5113908;27;20507;-60
2021/03/18 12:59:54;;;;;;;2.30;0.80;;;7.40;95.60;;;;;;5118829;27;21163;-60
2021/03/18 13:02:19;;;;;;;1.70;0.20;;;7.50;94.80;;;;;;5108022;27;20553;-60
2021/03/18 13:04:45;;;;;;;1.70;0.20;;;7.80;93.70;;;;;;5114018;27;20172;-61
2021/03/18 13:07:11;;;;;;;3.23;1.53;;;7.90;92.20;;;;;;5123119;27;20700;-60
2021/03/18 13:09:36;;;;;;;2.17;0.80;;;7.70;92.60;;;;;;5108381;27;20296;-60